Time;durP1;ratioP1;P1;durP2;ratioP2;P2;SDS_P1;SDS_P2;PMS_P1;PMS_P2;Temp;Humidity;BMP_temperature;BMP_pressure;BME280_temperature;BME280_humidity;BME280_pressure;Samples;Min_cycle;Max_cycle;Signal;HPM_P1;HPM_P2
2022/05/10 00:00:26;;;;;;;;;;;12.80;99.90;;;;;;5069697;28;19920;-71
2022/05/10 00:02:53;;;;;;;;;;;12.70;99.90;;;;;;5059177;28;20387;-71
2022/05/10 00:05:24;;;;;;;;;;;12.70;99.90;;;;;;5070026;28;19916;-71
2022/05/10 00:07:50;;;;;;;;;;;12.70;99.90;;;;;;5061554;28;19919;-70
2022/05/10 00:10:16;;;;;;;;;;;12.60;99.90;;;;;;5063198;28;19916;-71
2022/05/10 00:12:41;;;;;;;;;;;12.60;99.90;;;;;;5060027;28;19967;-71
2022/05/10 00:15:07;;;;;;;;;;;12.60;99.90;;;;;;5060172;28;19971;-71
2022/05/10 00:17:37;;;;;;;;;;;12.60;99.90;;;;;;5068799;28;20447;-70
2022/05/10 00:20:05;;;;;;;;;;;12.60;99.90;;;;;;5067937;28;19998;-71
2022/05/10 00:22:31;;;;;;;;;;;12.60;99.90;;;;;;5063585;28;20371;-71
2022/05/10 00:24:56;;;;;;;;;;;12.60;99.90;;;;;;5064070;28;20009;-72
2022/05/10 00:27:22;;;;;;;;;;;12.60;99.90;;;;;;5062970;28;20181;-71
2022/05/10 00:29:48;;;;;;;;;;;12.70;99.90;;;;;;5060025;28;19921;-71
2022/05/10 00:32:13;;;;;;;;;;;12.80;99.90;;;;;;5063302;28;19978;-71
2022/05/10 00:34:39;;;;;;;;;;;12.80;99.90;;;;;;5066678;28;19917;-71
2022/05/10 00:37:05;;;;;;;;;;;12.90;99.90;;;;;;5063378;28;19912;-70
2022/05/10 00:39:31;;;;;;;;;;;13.00;99.90;;;;;;5088717;28;19939;-71
2022/05/10 00:41:58;;;;;;;;;;;13.00;99.90;;;;;;5069563;28;20262;-72
2022/05/10 00:44:31;;;;;;;;;;;13.10;99.90;;;;;;5075019;28;20361;-72
2022/05/10 00:47:02;;;;;;;;;;;13.20;99.90;;;;;;5073366;28;19957;-71
2022/05/10 00:49:54;;;;;;;;;;;13.20;99.90;;;;;;5065386;28;19912;-71
2022/05/10 00:52:26;;;;;;;;;;;13.20;99.90;;;;;;5068439;28;19919;-71
2022/05/10 00:55:07;;;;;;;;;;;13.20;99.90;;;;;;5064908;28;19974;-71
2022/05/10 00:57:36;;;;;;;;;;;13.20;99.90;;;;;;5073097;28;19958;-70
2022/05/10 01:00:18;;;;;;;;;;;13.30;99.90;;;;;;5063990;28;20011;-71
2022/05/10 01:02:44;;;;;;;;;;;13.30;99.90;;;;;;5064515;28;19974;-71
2022/05/10 01:05:24;;;;;;;;;;;13.30;99.90;;;;;;5076657;28;19916;-71
2022/05/10 01:07:52;;;;;;;;;;;13.30;99.90;;;;;;5063321;28;20394;-70
2022/05/10 01:10:29;;;;;;;;;;;13.40;99.90;;;;;;5071238;28;19916;-71
2022/05/10 01:13:00;;;;;;;;;;;13.40;99.90;;;;;;5073250;28;19929;-71
2022/05/10 01:15:26;;;;;;;;;;;13.50;99.90;;;;;;5073022;28;19919;-71
2022/05/10 01:17:53;;;;;;;;;;;13.50;99.90;;;;;;5068246;28;19916;-71
2022/05/10 01:20:22;;;;;;;;;;;13.50;99.90;;;;;;5078731;28;19966;-71
2022/05/10 01:22:50;;;;;;;;;;;13.50;99.90;;;;;;5067918;28;19917;-71
2022/05/10 01:25:31;;;;;;;;;;;13.50;99.90;;;;;;5073726;28;20261;-71
2022/05/10 01:28:18;;;;;;;;;;;13.50;99.90;;;;;;5068405;28;20349;-71
2022/05/10 01:30:44;;;;;;;;;;;13.50;99.90;;;;;;5076642;28;19912;-72
2022/05/10 01:33:30;;;;;;;;;;;13.60;99.90;;;;;;5072100;28;20401;-72
2022/05/10 01:35:55;;;;;;;;;;;13.60;99.90;;;;;;5065369;28;19959;-71
2022/05/10 01:38:21;;;;;;;;;;;13.60;99.90;;;;;;5068432;28;19967;-72
2022/05/10 01:40:48;;;;;;;;;;;13.60;99.90;;;;;;5072517;28;20014;-72
2022/05/10 01:43:18;;;;;;;;;;;13.60;99.90;;;;;;5074788;28;19978;-71
2022/05/10 01:45:48;;;;;;;;;;;13.60;99.90;;;;;;5071802;28;19913;-71
2022/05/10 01:48:18;;;;;;;;;;;13.70;99.90;;;;;;5060764;28;19916;-71
2022/05/10 01:50:55;;;;;;;;;;;13.70;99.90;;;;;;5075285;28;19917;-72
2022/05/10 01:53:26;;;;;;;;;;;13.70;99.90;;;;;;5072709;28;19917;-72
2022/05/10 01:55:52;;;;;;;;;;;13.70;99.90;;;;;;5067272;28;20366;-71
2022/05/10 01:58:20;;;;;;;;;;;13.70;99.90;;;;;;5070591;28;20000;-71
2022/05/10 02:00:47;;;;;;;;;;;13.70;99.90;;;;;;5067591;28;19920;-72
2022/05/10 02:03:48;;;;;;;;;;;13.70;99.90;;;;;;5074412;28;19959;-71
2022/05/10 02:06:33;;;;;;;;;;;13.80;99.90;;;;;;5025847;28;19963;-72
2022/05/10 02:09:12;;;;;;;;;;;13.70;99.90;;;;;;5070740;28;20046;-71
2022/05/10 02:11:52;;;;;;;;;;;13.80;99.90;;;;;;5068988;28;20003;-72
2022/05/10 02:14:28;;;;;;;;;;;13.80;99.90;;;;;;5066721;28;19925;-72
2022/05/10 02:17:04;;;;;;;;;;;13.80;99.90;;;;;;5059722;28;20103;-72
2022/05/10 02:19:30;;;;;;;;;;;13.80;99.90;;;;;;5067322;28;19913;-72
2022/05/10 02:22:03;;;;;;;;;;;13.80;99.90;;;;;;5076015;28;19920;-72
2022/05/10 02:24:30;;;;;;;;;;;13.80;99.90;;;;;;5072111;28;20041;-71
2022/05/10 02:26:58;;;;;;;;;;;13.80;99.90;;;;;;5074183;28;19975;-71
2022/05/10 02:29:23;;;;;;;;;;;13.80;99.90;;;;;;5066891;28;20291;-70
2022/05/10 02:34:37;;;;;;;;;;;13.80;99.90;;;;;;5075905;28;19924;-72
2022/05/10 02:37:03;;;;;;;;;;;13.80;99.90;;;;;;5067887;28;19912;-71
2022/05/10 02:39:29;;;;;;;;;;;13.80;99.90;;;;;;5075267;28;19919;-72
2022/05/10 02:41:54;;;;;;;;;;;13.80;99.90;;;;;;5068811;28;19954;-71
2022/05/10 02:44:20;;;;;;;;;;;13.80;99.90;;;;;;5066882;28;19913;-72
2022/05/10 02:46:46;;;;;;;;;;;13.80;99.90;;;;;;5071002;28;19913;-71
2022/05/10 02:49:11;;;;;;;;;;;13.80;99.90;;;;;;5064511;28;19922;-71
2022/05/10 02:51:37;;;;;;;;;;;13.80;99.90;;;;;;5068200;28;19917;-71
2022/05/10 02:54:03;;;;;;;;;;;13.80;99.90;;;;;;5074483;28;19924;-71
2022/05/10 02:56:29;;;;;;;;;;;13.80;99.90;;;;;;5063109;28;19912;-72
2022/05/10 02:59:02;;;;;;;;;;;13.80;99.90;;;;;;5072960;28;19916;-71
2022/05/10 03:01:30;;;;;;;;;;;13.80;99.90;;;;;;5065093;28;19917;-71
2022/05/10 03:03:56;;;;;;;;;;;13.80;99.90;;;;;;5064164;28;19981;-70
2022/05/10 03:06:23;;;;;;;;;;;13.80;99.90;;;;;;5068849;28;19952;-72
2022/05/10 03:08:49;;;;;;;;;;;13.80;99.90;;;;;;5074884;28;19912;-71
2022/05/10 03:11:15;;;;;;;;;;;13.70;99.90;;;;;;5076017;28;19987;-71
2022/05/10 03:13:41;;;;;;;;;;;13.70;99.90;;;;;;5067555;28;19925;-71
2022/05/10 03:16:07;;;;;;;;;;;13.70;99.90;;;;;;5065890;28;19921;-71
2022/05/10 03:18:33;;;;;;;;;;;13.70;99.90;;;;;;5058525;28;19999;-72
2022/05/10 03:20:58;;;;;;;;;;;13.70;99.90;;;;;;5064747;28;19948;-71
2022/05/10 03:23:24;;;;;;;;;;;13.80;99.90;;;;;;5061399;28;19921;-70
2022/05/10 03:25:50;;;;;;;;;;;13.70;99.90;;;;;;5073715;28;20002;-71
2022/05/10 03:28:16;;;;;;;;;;;13.70;99.90;;;;;;5071826;28;20018;-72
2022/05/10 03:30:41;;;;;;;;;;;13.60;99.90;;;;;;5058450;28;19923;-72
2022/05/10 03:33:07;;;;;;;;;;;13.70;99.90;;;;;;5063864;28;20016;-72
2022/05/10 03:35:33;;;;;;;;;;;13.70;99.90;;;;;;5067822;28;19956;-71
2022/05/10 03:37:58;;;;;;;;;;;13.70;99.90;;;;;;5069043;28;19919;-71
2022/05/10 03:40:24;;;;;;;;;;;13.70;99.90;;;;;;5069825;28;19920;-71
2022/05/10 03:42:51;;;;;;;;;;;13.80;99.90;;;;;;5070326;28;20009;-72
2022/05/10 03:45:18;;;;;;;;;;;13.70;99.90;;;;;;5071494;28;20214;-71
2022/05/10 03:47:45;;;;;;;;;;;13.80;99.90;;;;;;5070089;28;19932;-71
2022/05/10 03:50:12;;;;;;;;;;;13.80;99.90;;;;;;5073847;28;19913;-71
2022/05/10 03:52:39;;;;;;;;;;;13.80;99.90;;;;;;5071464;28;20007;-71
2022/05/10 03:55:05;;;;;;;;;;;13.90;99.90;;;;;;5070171;28;19963;-71
2022/05/10 03:57:31;;;;;;;;;;;13.80;99.90;;;;;;5072491;28;19920;-72
2022/05/10 03:59:57;;;;;;;;;;;13.90;99.90;;;;;;5071353;28;19916;-71
2022/05/10 04:02:22;;;;;;;;;;;13.80;99.90;;;;;;5068767;28;21923;-72
2022/05/10 04:04:48;;;;;;;;;;;13.80;99.90;;;;;;5070584;28;20299;-71
2022/05/10 04:07:14;;;;;;;;;;;13.80;99.90;;;;;;5069976;28;20296;-72
2022/05/10 04:09:39;;;;;;;;;;;13.90;99.90;;;;;;5071197;28;19917;-72
2022/05/10 04:12:05;;;;;;;;;;;13.90;99.90;;;;;;5070694;28;19965;-71
2022/05/10 04:14:31;;;;;;;;;;;13.90;99.90;;;;;;5070135;28;19923;-72
2022/05/10 04:16:56;;;;;;;;;;;13.90;99.90;;;;;;5070186;28;19927;-72
2022/05/10 04:19:22;;;;;;;;;;;13.80;99.90;;;;;;5070164;28;19916;-72
2022/05/10 04:21:49;;;;;;;;;;;13.80;99.90;;;;;;5070769;28;19944;-72
2022/05/10 04:24:20;;;;;;;;;;;13.80;99.90;;;;;;5054331;28;20279;-71
2022/05/10 04:26:47;;;;;;;;;;;13.80;99.90;;;;;;5073617;28;19920;-72
2022/05/10 04:29:13;;;;;;;;;;;13.80;99.90;;;;;;5071891;28;19962;-72
2022/05/10 04:31:38;;;;;;;;;;;13.80;99.90;;;;;;5067111;28;19920;-72
2022/05/10 04:34:04;;;;;;;;;;;14.00;99.90;;;;;;5077289;28;19928;-72
2022/05/10 04:36:29;;;;;;;;;;;14.00;99.90;;;;;;5074957;28;20007;-72
2022/05/10 04:38:55;;;;;;;;;;;14.00;99.90;;;;;;5076926;28;19920;-71
2022/05/10 04:41:26;;;;;;;;;;;14.10;99.90;;;;;;5077573;28;19920;-71
2022/05/10 04:43:57;;;;;;;;;;;14.10;99.90;;;;;;5070636;28;19916;-71
2022/05/10 04:46:23;;;;;;;;;;;14.20;99.90;;;;;;5071249;28;20327;-71
2022/05/10 04:48:49;;;;;;;;;;;14.20;99.90;;;;;;5075293;28;19952;-71
2022/05/10 04:51:15;;;;;;;;;;;14.30;99.90;;;;;;5074850;28;19925;-71
2022/05/10 04:53:40;;;;;;;;;;;14.30;99.90;;;;;;5078046;28;19916;-72
2022/05/10 04:56:06;;;;;;;;;;;14.40;99.90;;;;;;5070856;28;19919;-72
2022/05/10 04:58:33;;;;;;;;;;;14.40;99.90;;;;;;5067819;28;19923;-72
2022/05/10 05:01:04;;;;;;;;;;;14.30;99.90;;;;;;5065859;28;19912;-71
2022/05/10 05:03:29;;;;;;;;;;;14.40;99.90;;;;;;5068956;28;19921;-72
2022/05/10 05:05:55;;;;;;;;;;;14.50;99.90;;;;;;5078640;28;20266;-72
2022/05/10 05:08:20;;;;;;;;;;;14.50;99.90;;;;;;5078295;28;19912;-71
2022/05/10 05:10:46;;;;;;;;;;;14.50;99.90;;;;;;5070396;28;19995;-72
2022/05/10 05:13:13;;;;;;;;;;;14.60;99.90;;;;;;5076637;28;19951;-72
2022/05/10 05:15:39;;;;;;;;;;;14.60;99.90;;;;;;5067099;28;19913;-71
2022/05/10 05:18:07;;;;;;;;;;;14.70;99.90;;;;;;5059007;28;20015;-71
2022/05/10 05:20:33;;;;;;;;;;;14.80;99.90;;;;;;5049683;28;20323;-71
2022/05/10 05:23:01;;;;;;;;;;;14.90;99.90;;;;;;5070788;28;19912;-71
2022/05/10 05:25:27;;;;;;;;;;;15.00;99.90;;;;;;5068326;28;19936;-72
2022/05/10 05:27:52;;;;;;;;;;;15.10;99.90;;;;;;5072770;28;20308;-71
2022/05/10 05:30:18;;;;;;;;;;;15.10;99.90;;;;;;5074930;28;20034;-71
2022/05/10 05:32:44;;;;;;;;;;;15.10;99.90;;;;;;5069891;28;20230;-71
2022/05/10 05:35:11;;;;;;;;;;;15.20;99.90;;;;;;5075617;28;19912;-72
2022/05/10 05:37:37;;;;;;;;;;;15.20;99.90;;;;;;5067460;28;19913;-71
2022/05/10 05:40:02;;;;;;;;;;;15.30;99.90;;;;;;5065333;28;19913;-72
2022/05/10 05:42:28;;;;;;;;;;;15.30;99.90;;;;;;5057632;28;20258;-72
2022/05/10 05:44:54;;;;;;;;;;;15.40;99.90;;;;;;5062535;28;19916;-71
2022/05/10 05:47:19;;;;;;;;;;;15.50;99.90;;;;;;5065230;28;19913;-71
2022/05/10 05:49:45;;;;;;;;;;;15.50;99.90;;;;;;5073084;28;20315;-71
2022/05/10 05:52:11;;;;;;;;;;;15.60;99.90;;;;;;5075097;28;19975;-71
2022/05/10 05:54:37;;;;;;;;;;;15.70;99.90;;;;;;5075672;28;19920;-71
2022/05/10 05:57:03;;;;;;;;;;;15.80;99.90;;;;;;5074479;28;20296;-72
2022/05/10 05:59:29;;;;;;;;;;;15.90;99.90;;;;;;5073302;28;19971;-71
2022/05/10 06:01:55;;;;;;;;;;;16.00;99.90;;;;;;5074165;28;20381;-71
2022/05/10 06:04:21;;;;;;;;;;;16.00;99.90;;;;;;5075318;28;19959;-71
2022/05/10 06:06:47;;;;;;;;;;;16.20;99.90;;;;;;5073140;28;19916;-71
2022/05/10 06:09:13;;;;;;;;;;;16.20;99.90;;;;;;5075647;28;19913;-71
2022/05/10 06:11:39;;;;;;;;;;;16.40;99.90;;;;;;5073614;28;19920;-71
2022/05/10 06:14:05;;;;;;;;;;;16.50;99.90;;;;;;5074027;28;19939;-71
2022/05/10 06:16:31;;;;;;;;;;;16.60;99.90;;;;;;5074050;28;20238;-72
2022/05/10 06:18:57;;;;;;;;;;;16.60;99.90;;;;;;5075000;28;20375;-71
2022/05/10 06:21:23;;;;;;;;;;;16.80;99.90;;;;;;5075427;28;19920;-71
2022/05/10 06:23:49;;;;;;;;;;;16.90;99.90;;;;;;5074674;28;19913;-71
2022/05/10 06:26:14;;;;;;;;;;;17.00;99.90;;;;;;5073271;28;20275;-72
2022/05/10 06:28:40;;;;;;;;;;;17.10;99.90;;;;;;5073383;28;20299;-71
2022/05/10 06:31:08;;;;;;;;;;;17.10;99.90;;;;;;5073734;28;19912;-71
2022/05/10 06:33:34;;;;;;;;;;;17.10;99.90;;;;;;5072334;28;20296;-72
2022/05/10 06:35:59;;;;;;;;;;;17.20;99.90;;;;;;5071416;28;20015;-72
2022/05/10 06:38:28;;;;;;;;;;;17.30;99.90;;;;;;5071477;28;20368;-72
2022/05/10 06:40:55;;;;;;;;;;;17.40;99.90;;;;;;5072512;28;19970;-71
2022/05/10 06:43:20;;;;;;;;;;;17.40;99.90;;;;;;5072455;28;20308;-71
2022/05/10 06:45:46;;;;;;;;;;;17.50;99.90;;;;;;5073047;28;19962;-71
2022/05/10 06:48:12;;;;;;;;;;;17.60;99.90;;;;;;5075795;28;19923;-71
2022/05/10 06:50:37;;;;;;;;;;;17.60;99.90;;;;;;5074298;28;20215;-71
2022/05/10 06:53:04;;;;;;;;;;;17.60;99.90;;;;;;5074295;28;19909;-71
2022/05/10 06:55:30;;;;;;;;;;;17.70;99.90;;;;;;5071303;28;19913;-71
2022/05/10 06:57:56;;;;;;;;;;;17.70;99.90;;;;;;5074859;28;19946;-71
2022/05/10 07:00:22;;;;;;;;;;;17.80;99.90;;;;;;5070513;28;20406;-71
2022/05/10 07:02:48;;;;;;;;;;;17.90;99.90;;;;;;5071297;28;20028;-71
2022/05/10 07:05:14;;;;;;;;;;;17.90;99.90;;;;;;5072737;28;19912;-71
2022/05/10 07:07:40;;;;;;;;;;;18.00;99.90;;;;;;5071215;28;19921;-72
2022/05/10 07:10:11;;;;;;;;;;;18.10;99.90;;;;;;5073136;28;20049;-71
2022/05/10 07:12:37;;;;;;;;;;;18.30;99.90;;;;;;5072549;28;19928;-71
2022/05/10 07:15:04;;;;;;;;;;;18.40;99.90;;;;;;5071917;28;19924;-71
2022/05/10 07:17:29;;;;;;;;;;;18.50;99.90;;;;;;5071096;28;19917;-71
2022/05/10 07:19:55;;;;;;;;;;;18.60;99.90;;;;;;5048111;28;19978;-71
2022/05/10 07:22:20;;;;;;;;;;;18.70;99.90;;;;;;5073862;28;19917;-71
2022/05/10 07:24:46;;;;;;;;;;;18.90;99.90;;;;;;5074308;28;19917;-71
2022/05/10 07:27:12;;;;;;;;;;;18.90;99.90;;;;;;5072530;28;19917;-71
2022/05/10 07:29:38;;;;;;;;;;;19.00;99.90;;;;;;5071141;28;19912;-71
2022/05/10 07:32:04;;;;;;;;;;;19.10;99.90;;;;;;5072890;28;20265;-71
2022/05/10 07:34:29;;;;;;;;;;;19.30;99.90;;;;;;5073354;28;19924;-71
2022/05/10 07:36:55;;;;;;;;;;;19.30;99.90;;;;;;5072532;28;19935;-72
2022/05/10 07:39:23;;;;;;;;;;;19.40;99.90;;;;;;5072752;28;19969;-71
2022/05/10 07:41:50;;;;;;;;;;;19.50;99.90;;;;;;5073709;28;20010;-71
2022/05/10 07:44:16;;;;;;;;;;;19.50;99.90;;;;;;5071237;28;19912;-72
2022/05/10 07:46:41;;;;;;;;;;;19.50;99.90;;;;;;5070666;28;19922;-71
2022/05/10 07:49:07;;;;;;;;;;;19.60;99.90;;;;;;5071433;28;19930;-72
2022/05/10 07:51:32;;;;;;;;;;;19.70;99.90;;;;;;5070923;28;20291;-71
2022/05/10 07:53:58;;;;;;;;;;;19.80;99.90;;;;;;5072121;28;19916;-71
2022/05/10 07:56:24;;;;;;;;;;;19.90;99.90;;;;;;5072738;28;19932;-71
2022/05/10 07:58:51;;;;;;;;;;;19.90;99.90;;;;;;5073396;28;19920;-72
2022/05/10 08:01:16;;;;;;;;;;;20.00;99.90;;;;;;5073390;28;19924;-72
2022/05/10 08:03:43;;;;;;;;;;;20.00;99.90;;;;;;5072849;28;19917;-71
2022/05/10 08:06:08;;;;;;;;;;;19.90;99.90;;;;;;5073690;28;19913;-71
2022/05/10 08:08:34;;;;;;;;;;;20.20;99.90;;;;;;5071417;28;20413;-71
2022/05/10 08:11:01;;;;;;;;;;;20.90;99.90;;;;;;5072964;28;19919;-72
2022/05/10 08:13:27;;;;;;;;;;;21.80;99.90;;;;;;5069657;28;19924;-71
2022/05/10 08:15:54;;;;;;;;;;;22.60;99.90;;;;;;5070925;28;19912;-71
2022/05/10 08:18:20;;;;;;;;;;;22.90;99.90;;;;;;5071338;28;19913;-72
2022/05/10 08:20:46;;;;;;;;;;;23.10;99.90;;;;;;5062280;28;19916;-71
2022/05/10 08:23:15;;;;;;;;;;;22.80;99.90;;;;;;5071458;28;19928;-72
2022/05/10 08:25:41;;;;;;;;;;;22.70;99.90;;;;;;5071099;28;19912;-71
2022/05/10 08:28:13;;;;;;;;;;;22.40;99.90;;;;;;5072320;28;19939;-71
2022/05/10 08:30:43;;;;;;;;;;;22.10;99.90;;;;;;5062541;28;19920;-71
2022/05/10 08:33:10;;;;;;;;;;;22.20;99.90;;;;;;5068005;28;19962;-71
2022/05/10 08:35:38;;;;;;;;;;;22.30;99.90;;;;;;5072411;28;20266;-71
2022/05/10 08:38:04;;;;;;;;;;;22.50;99.90;;;;;;5071783;28;19912;-71
2022/05/10 08:40:32;;;;;;;;;;;22.50;99.90;;;;;;5070617;28;19912;-72
2022/05/10 08:43:03;;;;;;;;;;;22.80;99.90;;;;;;5070076;28;19917;-72
2022/05/10 08:45:29;;;;;;;;;;;23.50;99.90;;;;;;5071110;28;19913;-71
2022/05/10 08:47:55;;;;;;;;;;;23.80;99.90;;;;;;5072341;28;19939;-71
2022/05/10 08:50:21;;;;;;;;;;;23.80;99.90;;;;;;5073333;28;20021;-71
2022/05/10 08:52:51;;;;;;;;;;;23.80;99.90;;;;;;5071971;28;19916;-71
2022/05/10 08:55:21;;;;;;;;;;;23.70;99.90;;;;;;5072622;28;19924;-71
2022/05/10 08:57:52;;;;;;;;;;;23.60;99.90;;;;;;5071492;28;19916;-72
2022/05/10 09:00:31;;;;;;;;;;;23.40;99.90;;;;;;5071519;28;19924;-71
2022/05/10 09:02:57;;;;;;;;;;;23.30;99.90;;;;;;5068299;28;19916;-71
2022/05/10 09:05:42;;;;;;;;;;;23.30;99.90;;;;;;5069989;28;19916;-71
2022/05/10 09:08:24;;;;;;;;;;;23.20;99.90;;;;;;5069060;28;19916;-71
2022/05/10 09:11:10;;;;;;;;;;;22.90;99.90;;;;;;5068657;28;19917;-71
2022/05/10 09:13:36;;;;;;;;;;;22.90;99.90;;;;;;5068436;28;20204;-71
2022/05/10 09:16:02;;;;;;;;;;;23.00;99.90;;;;;;5069819;28;19969;-71
2022/05/10 09:18:36;;;;;;;;;;;23.00;99.90;;;;;;5071731;28;19924;-71
2022/05/10 09:21:24;;;;;;;;;;;22.90;99.90;;;;;;5069390;28;19916;-71
2022/05/10 09:24:08;;;;;;;;;;;22.80;99.90;;;;;;5071172;28;19916;-72
2022/05/10 09:26:39;;;;;;;;;;;22.90;99.90;;;;;;5069997;28;20037;-72
2022/05/10 09:29:28;;;;;;;;;;;22.80;99.90;;;;;;5070694;28;19924;-72
2022/05/10 09:34:45;;;;;;;;;;;23.00;99.90;;;;;;5072958;28;19965;-71
2022/05/10 09:37:20;;;;;;;;;;;23.00;99.90;;;;;;5067948;28;19916;-71
2022/05/10 09:39:49;;;;;;;;;;;23.00;99.90;;;;;;5071521;28;19993;-71
2022/05/10 09:42:24;;;;;;;;;;;22.90;99.90;;;;;;5071410;28;20533;-71
2022/05/10 09:45:00;;;;;;;;;;;22.90;99.90;;;;;;5072225;28;19978;-71
2022/05/10 09:47:26;;;;;;;;;;;23.00;99.90;;;;;;5071930;28;19989;-71
2022/05/10 09:49:52;;;;;;;;;;;23.20;99.90;;;;;;5069035;28;20204;-71
2022/05/10 09:52:19;;;;;;;;;;;23.30;99.90;;;;;;5068444;28;19931;-71
2022/05/10 09:54:45;;;;;;;;;;;23.70;99.90;;;;;;5070645;28;19928;-71
2022/05/10 09:57:23;;;;;;;;;;;24.10;99.90;;;;;;5071379;28;19916;-71
2022/05/10 09:59:49;;;;;;;;;;;24.10;98.80;;;;;;5071509;28;19959;-71
2022/05/10 10:02:32;;;;;;;;;;;24.10;98.70;;;;;;5071367;28;20034;-71
2022/05/10 10:04:59;;;;;;;;;;;24.00;98.30;;;;;;5071156;28;19932;-71
2022/05/10 10:07:26;;;;;;;;;;;24.30;99.30;;;;;;5071365;28;20012;-72
2022/05/10 10:10:11;;;;;;;;;;;24.90;98.00;;;;;;5070301;28;20333;-72
2022/05/10 10:12:39;;;;;;;;;;;25.20;97.00;;;;;;5071398;28;19974;-71
2022/05/10 10:15:24;;;;;;;;;;;25.20;96.40;;;;;;5072385;28;19955;-71
2022/05/10 10:17:51;;;;;;;;;;;25.30;95.10;;;;;;5070427;28;19997;-71
2022/05/10 10:20:23;;;;;;;;;;;25.00;95.60;;;;;;5064385;28;20024;-71
2022/05/10 10:22:50;;;;;;;;;;;24.90;95.90;;;;;;5062680;28;19917;-71
2022/05/10 10:25:34;;;;;;;;;;;24.60;95.80;;;;;;5062483;28;19917;-71
2022/05/10 10:28:00;;;;;;;;;;;24.50;96.30;;;;;;5060745;28;20417;-71
2022/05/10 10:30:27;;;;;;;;;;;24.60;96.20;;;;;;5063941;28;19916;-72
2022/05/10 10:33:32;;;;;;;;;;;24.70;95.80;;;;;;5071840;28;19951;-72
2022/05/10 10:36:20;;;;;;;;;;;24.30;95.40;;;;;;5006334;28;19928;-72
2022/05/10 10:38:49;;;;;;;;;;;24.30;96.70;;;;;;4996716;28;19927;-71
2022/05/10 10:41:19;;;;;;;;;;;24.30;96.20;;;;;;5009632;28;19956;-70
2022/05/10 10:43:54;;;;;;;;;;;24.40;96.50;;;;;;4990651;28;19921;-72
2022/05/10 10:46:24;;;;;;;;;;;24.50;96.50;;;;;;4999391;28;19933;-71
2022/05/10 10:48:53;;;;;;;;;;;24.50;96.80;;;;;;5008784;28;19922;-71
2022/05/10 10:51:21;;;;;;;;;;;24.70;96.70;;;;;;5008138;28;19968;-71
2022/05/10 10:53:47;;;;;;;;;;;25.00;96.50;;;;;;4992104;28;19927;-71
2022/05/10 10:56:16;;;;;;;;;;;25.70;96.10;;;;;;5009108;28;19917;-71
2022/05/10 10:58:50;;;;;;;;;;;25.60;95.40;;;;;;5009691;28;20332;-71
2022/05/10 11:01:34;;;;;;;;;;;25.30;95.60;;;;;;5008288;28;19953;-71
2022/05/10 11:04:12;;;;;;;;;;;25.40;96.10;;;;;;4999450;28;19924;-73
2022/05/10 11:06:47;;;;;;;;;;;25.70;95.60;;;;;;5035828;28;20275;-72
2022/05/10 11:09:36;;;;;;;;;;;25.20;95.30;;;;;;5070301;28;20007;-71
2022/05/10 11:12:20;;;;;;;;;;;24.80;95.80;;;;;;5062792;28;19978;-69
2022/05/10 11:14:56;;;;;;;;;;;24.60;95.70;;;;;;5069975;28;19920;-71
2022/05/10 11:17:42;;;;;;;;;;;24.70;96.90;;;;;;5069673;28;19916;-71
2022/05/10 11:20:14;;;;;;;;;;;24.80;97.30;;;;;;5070028;28;19917;-71
2022/05/10 11:22:55;;;;;;;;;;;25.20;96.70;;;;;;5069772;28;19917;-70
2022/05/10 11:25:33;;;;;;;;;;;25.30;95.00;;;;;;5072654;28;20230;-70
2022/05/10 11:28:05;;;;;;;;;;;24.90;95.30;;;;;;5072267;28;19916;-71
2022/05/10 11:30:31;;;;;;;;;;;24.80;95.60;;;;;;5062922;28;19912;-71
2022/05/10 11:33:05;;;;;;;;;;;24.90;95.40;;;;;;5055384;28;19981;-71
2022/05/10 11:35:46;;;;;;;;;;;24.80;94.60;;;;;;5063987;28;19927;-71
2022/05/10 11:38:17;;;;;;;;;;;24.80;95.50;;;;;;5065716;28;19963;-71
2022/05/10 11:41:02;;;;;;;;;;;24.80;94.80;;;;;;5068494;28;19912;-71
2022/05/10 11:43:50;;;;;;;;;;;24.80;94.50;;;;;;5059403;28;20035;-71
2022/05/10 11:46:31;;;;;;;;;;;24.70;94.80;;;;;;5063330;28;19974;-71
2022/05/10 11:49:15;;;;;;;;;;;24.40;95.10;;;;;;5067480;28;19923;-70
2022/05/10 11:51:49;;;;;;;;;;;24.40;94.20;;;;;;5058803;28;19923;-71
2022/05/10 11:54:33;;;;;;;;;;;24.50;94.30;;;;;;5061546;28;19960;-71
2022/05/10 11:56:59;;;;;;;;;;;24.50;95.10;;;;;;5069136;28;19921;-71
2022/05/10 11:59:27;;;;;;;;;;;24.70;94.10;;;;;;5067735;28;20042;-71
2022/05/10 12:01:54;;;;;;;;;;;24.90;93.60;;;;;;5064117;28;20015;-71
2022/05/10 12:04:28;;;;;;;;;;;25.00;93.70;;;;;;5065149;28;19920;-71
2022/05/10 12:06:55;;;;;;;;;;;25.20;92.60;;;;;;5068215;28;19916;-71
2022/05/10 12:09:39;;;;;;;;;;;25.20;93.00;;;;;;5070372;28;19916;-70
2022/05/10 12:12:05;;;;;;;;;;;25.00;91.80;;;;;;5067658;28;19959;-71
2022/05/10 12:23:15;;;;;;;;;;;23.90;93.20;;;;;;5069326;28;20231;-71
2022/05/10 12:25:41;;;;;;;;;;;23.60;93.40;;;;;;5068679;28;19917;-70
2022/05/10 12:28:07;;;;;;;;;;;23.50;93.60;;;;;;5067075;28;19917;-70
2022/05/10 12:30:34;;;;;;;;;;;23.40;94.30;;;;;;5069581;28;19923;-70
2022/05/10 12:33:19;;;;;;;;;;;23.40;95.30;;;;;;5070044;28;19920;-70
2022/05/10 12:35:45;;;;;;;;;;;23.50;94.00;;;;;;5067234;28;20366;-71
2022/05/10 12:38:30;;;;;;;;;;;23.30;94.40;;;;;;5071758;28;20003;-71
2022/05/10 12:41:01;;;;;;;;;;;23.20;94.50;;;;;;5059790;28;19917;-70
2022/05/10 12:43:33;;;;;;;;;;;22.80;93.50;;;;;;5069220;28;19917;-70
2022/05/10 12:46:01;;;;;;;;;;;22.50;93.80;;;;;;5052385;28;19913;-70
2022/05/10 12:48:45;;;;;;;;;;;22.30;93.70;;;;;;5059915;28;20302;-70
2022/05/10 12:51:29;;;;;;;;;;;22.20;94.40;;;;;;5065007;28;19923;-71
2022/05/10 12:53:55;;;;;;;;;;;22.00;94.50;;;;;;5070972;28;20027;-70
2022/05/10 12:56:35;;;;;;;;;;;21.90;94.70;;;;;;5074478;28;19999;-71
2022/05/10 12:59:19;;;;;;;;;;;21.90;95.30;;;;;;5064799;28;19920;-70
2022/05/10 13:01:47;;;;;;;;;;;22.10;94.80;;;;;;5050348;28;19924;-71
2022/05/10 13:04:15;;;;;;;;;;;22.10;94.60;;;;;;5064915;28;19917;-71
2022/05/10 13:06:46;;;;;;;;;;;22.00;93.00;;;;;;5066101;28;19932;-70
2022/05/10 13:09:31;;;;;;;;;;;21.70;93.30;;;;;;5067290;28;19928;-70
2022/05/10 13:12:01;;;;;;;;;;;21.70;93.10;;;;;;5067318;28;19921;-70
2022/05/10 13:14:29;;;;;;;;;;;21.80;92.50;;;;;;5070516;28;20131;-70
2022/05/10 13:16:54;;;;;;;;;;;21.70;89.70;;;;;;4172606;28;10000969;-70
2022/05/10 13:19:21;;;;;;;;;;;21.70;87.90;;;;;;5046807;28;19948;-70
2022/05/10 13:21:48;;;;;;;;;;;21.80;88.70;;;;;;5032258;28;19921;-70
2022/05/10 13:24:17;;;;;;;;;;;21.90;88.20;;;;;;5030496;28;19999;-70
2022/05/10 13:26:49;;;;;;;;;;;21.90;89.50;;;;;;5032114;28;19917;-70
2022/05/10 13:29:14;;;;;;;;;;;21.80;89.20;;;;;;5031905;28;19929;-70
2022/05/10 13:31:40;;;;;;;;;;;21.70;88.70;;;;;;5032301;28;19917;-70
2022/05/10 13:34:12;;;;;;;;;;;21.60;88.00;;;;;;5031158;28;19925;-70
2022/05/10 13:36:38;;;;;;;;;;;21.60;89.10;;;;;;5032983;28;20048;-70
2022/05/10 13:39:04;;;;;;;;;;;21.60;87.30;;;;;;5028819;28;19917;-70
2022/05/10 13:41:34;;;;;;;;;;;21.70;85.60;;;;;;5023096;28;19917;-70
2022/05/10 13:44:04;;;;;;;;;;;21.60;85.60;;;;;;5032350;28;19924;-69
2022/05/10 13:46:38;;;;;;;;;;;21.60;86.10;;;;;;5020729;28;19917;-70
2022/05/10 13:49:08;;;;;;;;;;;21.50;87.90;;;;;;5031649;28;19917;-70
2022/05/10 13:51:51;;;;;;;;;;;21.50;86.30;;;;;;5032038;28;19940;-70
2022/05/10 13:54:22;;;;;;;;;;;21.30;90.20;;;;;;5029705;28;20232;-70
2022/05/10 13:56:47;;;;;;;;;;;21.30;89.40;;;;;;5030423;28;19956;-70
2022/05/10 13:59:13;;;;;;;;;;;21.20;88.80;;;;;;5029872;28;19948;-70
2022/05/10 14:01:42;;;;;;;;;;;21.10;90.50;;;;;;5030106;28;19924;-70
2022/05/10 14:04:09;;;;;;;;;;;20.90;90.90;;;;;;5061710;28;19924;-70
2022/05/10 14:06:37;;;;;;;;;;;20.60;91.00;;;;;;5031792;28;19927;-71
2022/05/10 14:09:07;;;;;;;;;;;20.50;92.00;;;;;;5032244;28;19921;-70
2022/05/10 14:11:33;;;;;;;;;;;20.30;91.40;;;;;;5031017;28;19944;-70
2022/05/10 14:13:59;;;;;;;;;;;20.20;91.80;;;;;;5030140;28;20024;-71
2022/05/10 14:16:29;;;;;;;;;;;20.00;92.20;;;;;;5031658;28;19920;-70
2022/05/10 14:18:56;;;;;;;;;;;19.90;92.40;;;;;;5032266;28;20394;-70
2022/05/10 14:21:23;;;;;;;;;;;19.70;92.70;;;;;;5031641;28;19921;-70
2022/05/10 14:23:49;;;;;;;;;;;19.70;92.80;;;;;;5031104;28;20052;-70
2022/05/10 14:26:33;;;;;;;;;;;19.70;93.00;;;;;;5030819;28;19917;-70
2022/05/10 14:29:08;;;;;;;;;;;19.70;93.40;;;;;;5029454;28;20019;-70
2022/05/10 14:31:35;;;;;;;;;;;19.60;93.30;;;;;;5032424;28;20278;-70
2022/05/10 14:34:02;;;;;;;;;;;19.60;93.60;;;;;;5030041;28;19925;-70
2022/05/10 14:36:30;;;;;;;;;;;19.50;93.90;;;;;;5030903;28;19971;-70
2022/05/10 14:38:57;;;;;;;;;;;19.30;94.50;;;;;;5031350;28;19921;-70
2022/05/10 14:41:29;;;;;;;;;;;19.30;94.70;;;;;;5032444;28;19925;-70
2022/05/10 14:43:55;;;;;;;;;;;19.30;94.60;;;;;;5060107;28;20287;-70